createdAt,value
2022-10-03T00:01:47.228Z,7.18
2022-10-03T00:04:36.000Z,5.20
2022-10-03T00:07:16.563Z,5.68
2022-10-03T00:10:00.702Z,5.35
2022-10-03T00:12:59.545Z,7.00
2022-10-03T00:15:35.531Z,5.18
2022-10-03T00:18:15.445Z,7.13
2022-10-03T00:23:41.846Z,5.82
2022-10-03T00:26:37.138Z,4.65
2022-10-03T00:29:24.822Z,5.05
2022-10-03T00:32:01.637Z,6.28
2022-10-03T00:34:45.676Z,5.40
2022-10-03T00:37:28.559Z,5.45
2022-10-03T00:40:24.098Z,4.28
2022-10-03T00:43:28.148Z,7.40
2022-10-03T00:46:24.376Z,5.78
2022-10-03T00:49:31.990Z,4.60
2022-10-03T00:52:20.317Z,6.43
2022-10-03T00:55:01.689Z,4.95
2022-10-03T00:57:44.225Z,5.35
2022-10-03T01:00:20.640Z,4.55
2022-10-03T01:03:06.669Z,3.17
2022-10-03T01:05:56.467Z,4.80
2022-10-03T01:08:39.653Z,4.82
2022-10-03T01:11:20.239Z,3.17
2022-10-03T01:14:03.863Z,3.83
2022-10-03T01:16:40.434Z,4.95
2022-10-03T01:19:29.633Z,5.53
2022-10-03T01:22:17.842Z,4.30
2022-10-03T01:24:55.086Z,4.45
2022-10-03T01:27:34.717Z,4.85
2022-10-03T01:30:23.618Z,3.63
2022-10-03T01:32:58.789Z,3.47
2022-10-03T01:35:37.651Z,5.35
2022-10-03T01:38:14.560Z,3.60
2022-10-03T01:40:49.317Z,5.13
2022-10-03T01:43:21.332Z,4.55
2022-10-03T01:46:09.833Z,3.83
2022-10-03T01:48:45.105Z,5.65
2022-10-03T01:51:16.868Z,4.20
2022-10-03T01:53:59.476Z,5.72
2022-10-03T01:56:34.993Z,4.55
2022-10-03T01:59:09.749Z,3.42
2022-10-03T02:01:49.362Z,4.57
2022-10-03T02:04:28.975Z,4.85
2022-10-03T02:07:06.317Z,4.63
2022-10-03T02:09:42.187Z,3.75
2022-10-03T02:12:14.405Z,4.45
2022-10-03T02:14:50.688Z,4.97
2022-10-03T02:17:37.848Z,4.38
2022-10-03T02:20:13.975Z,5.47
2022-10-03T02:22:46.048Z,3.15
2022-10-03T02:25:26.000Z,3.78
2022-10-03T02:31:02.704Z,3.85
2022-10-03T02:34:17.172Z,3.25
2022-10-03T02:36:56.951Z,3.60
2022-10-03T02:39:56.527Z,4.85
2022-10-03T02:42:53.273Z,4.07
2022-10-03T02:45:47.763Z,4.57
2022-10-03T02:48:45.569Z,2.47
2022-10-03T02:51:42.347Z,4.80
2022-10-03T02:54:35.660Z,5.20
2022-10-03T02:57:51.820Z,2.92
2022-10-03T03:00:22.115Z,4.40
2022-10-03T03:03:34.570Z,3.30
2022-10-03T03:06:32.617Z,3.38
2022-10-03T03:09:29.613Z,3.15
2022-10-03T03:12:40.439Z,3.22
2022-10-03T03:15:47.724Z,4.38
2022-10-03T03:18:28.881Z,4.05
2022-10-03T03:21:10.173Z,4.32
2022-10-03T03:24:14.752Z,4.78
2022-10-03T03:27:04.053Z,4.53
2022-10-03T03:29:43.972Z,4.25
2022-10-03T03:34:49.462Z,6.85
2022-10-03T03:37:26.104Z,3.97
2022-10-03T03:40:19.255Z,3.65
2022-10-03T03:43:04.854Z,3.92
2022-10-03T03:45:46.747Z,3.47
2022-10-03T03:48:29.597Z,3.88
2022-10-03T03:51:16.978Z,4.68
2022-10-03T03:54:09.587Z,3.75
2022-10-03T03:57:06.804Z,4.10
2022-10-03T03:59:50.463Z,3.42
2022-10-03T04:02:33.186Z,3.50
2022-10-03T04:05:21.000Z,3.65
2022-10-03T04:08:12.178Z,6.32
2022-10-03T04:10:54.479Z,2.50
2022-10-03T04:13:37.669Z,4.50
2022-10-03T04:16:40.713Z,4.30
2022-10-03T04:19:14.433Z,2.83
2022-10-03T04:22:02.949Z,5.80
2022-10-03T04:25:05.477Z,3.38
2022-10-03T04:27:48.682Z,3.30
2022-10-03T04:30:22.149Z,3.78
2022-10-03T04:33:07.602Z,3.80
2022-10-03T04:36:16.688Z,2.85
2022-10-03T04:38:50.804Z,4.25
2022-10-03T04:41:28.678Z,4.97
2022-10-03T04:44:11.989Z,3.47
2022-10-03T04:46:49.361Z,4.50
2022-10-03T04:49:23.908Z,3.45
2022-10-03T04:51:59.329Z,4.45
2022-10-03T04:54:38.757Z,4.90
2022-10-03T04:57:18.680Z,3.05
2022-10-03T05:02:29.487Z,3.65
2022-10-03T05:05:25.064Z,2.53
2022-10-03T05:08:01.355Z,3.58
2022-10-03T05:10:45.193Z,4.65
2022-10-03T05:13:19.476Z,4.40
2022-10-03T05:15:57.726Z,4.38
2022-10-03T05:18:35.192Z,3.10
2022-10-03T05:21:10.600Z,3.78
2022-10-03T05:23:52.019Z,4.30
2022-10-03T05:29:25.136Z,3.08
2022-10-03T05:32:08.406Z,3.55
2022-10-03T05:34:50.037Z,10.15
2022-10-03T05:37:41.045Z,7.72
2022-10-03T05:40:18.132Z,13.80
2022-10-03T05:43:02.700Z,7.30
2022-10-03T05:45:37.827Z,8.88
2022-10-03T05:48:18.979Z,6.65
2022-10-03T05:51:22.491Z,12.32
2022-10-03T05:54:14.613Z,8.38
2022-10-03T05:57:18.203Z,5.50
2022-10-03T06:00:02.501Z,8.52
2022-10-03T06:02:55.750Z,7.38
2022-10-03T06:05:33.075Z,9.00
2022-10-03T06:08:41.973Z,7.80
2022-10-03T06:11:26.996Z,9.55
2022-10-03T06:14:19.981Z,8.52
2022-10-03T06:16:59.547Z,9.00
2022-10-03T06:19:47.087Z,6.55
2022-10-03T06:22:40.681Z,8.68
2022-10-03T06:25:56.487Z,8.13
2022-10-03T06:29:25.098Z,7.13
2022-10-03T06:32:28.805Z,10.80
2022-10-03T06:35:38.787Z,10.35
2022-10-03T06:41:51.554Z,7.22
2022-10-03T06:44:36.381Z,8.82
2022-10-03T06:47:31.551Z,9.30
2022-10-03T06:50:35.694Z,5.78
2022-10-03T06:53:17.056Z,6.53
2022-10-03T06:56:09.935Z,7.00
2022-10-03T06:58:56.004Z,5.40
2022-10-03T07:01:56.383Z,6.32
2022-10-03T07:04:50.387Z,5.57
2022-10-03T07:07:53.802Z,5.47
2022-10-03T07:10:46.817Z,5.43
2022-10-03T07:13:53.109Z,8.65
2022-10-03T07:16:43.833Z,5.57
2022-10-03T07:19:31.201Z,5.60
2022-10-03T07:22:41.357Z,4.90
2022-10-03T07:25:29.969Z,5.95
2022-10-03T07:28:17.723Z,5.75
2022-10-03T07:31:00.523Z,4.80
2022-10-03T07:33:51.107Z,4.13
2022-10-03T07:37:08.981Z,5.68
2022-10-03T07:40:03.840Z,5.90
2022-10-03T07:43:23.448Z,5.28
2022-10-03T07:46:25.395Z,5.05
2022-10-03T07:49:16.207Z,8.25
2022-10-03T07:52:00.839Z,6.55
2022-10-03T07:54:53.617Z,4.93
2022-10-03T07:57:38.285Z,4.55
2022-10-03T08:00:24.433Z,5.75
2022-10-03T08:03:34.880Z,5.43
2022-10-03T08:06:24.657Z,6.38
2022-10-03T08:09:07.636Z,5.68
2022-10-03T08:12:12.296Z,4.15
2022-10-03T08:14:53.571Z,6.07
2022-10-03T08:17:59.255Z,5.70
2022-10-03T08:20:40.039Z,5.25
2022-10-03T08:23:41.064Z,4.57
2022-10-03T08:26:19.011Z,5.55
2022-10-03T08:29:20.821Z,5.80
2022-10-03T08:32:18.772Z,6.68
2022-10-03T08:35:24.528Z,12.13
2022-10-03T08:38:28.214Z,10.95
2022-10-03T08:41:28.881Z,11.23
2022-10-03T08:44:45.047Z,13.25
2022-10-03T08:47:48.109Z,10.80
2022-10-03T08:50:42.879Z,8.32
2022-10-03T08:53:59.576Z,11.55
2022-10-03T08:56:47.650Z,8.07
2022-10-03T09:00:01.833Z,9.27
2022-10-03T09:03:32.218Z,9.75
2022-10-03T09:06:58.974Z,9.02
2022-10-03T09:10:11.646Z,7.97
2022-10-03T09:13:04.344Z,8.43
2022-10-03T09:16:18.814Z,7.80
2022-10-03T09:19:18.212Z,12.32
2022-10-03T09:22:20.699Z,9.90
2022-10-03T09:25:21.137Z,4.78
2022-10-03T09:28:25.803Z,7.10
2022-10-03T09:31:06.190Z,10.10
2022-10-03T09:34:05.378Z,6.72
2022-10-03T09:37:10.772Z,7.00
2022-10-03T09:40:10.809Z,6.38
2022-10-03T09:43:08.703Z,8.00
2022-10-03T09:46:27.711Z,11.38
2022-10-03T09:49:30.233Z,11.10
2022-10-03T09:52:24.164Z,11.25
2022-10-03T09:55:14.977Z,10.73
2022-10-03T11:34:57.692Z,4.85
2022-10-03T11:37:42.588Z,3.17
2022-10-03T11:40:29.468Z,3.88
2022-10-03T11:43:18.396Z,5.35
2022-10-03T11:45:52.437Z,4.13
2022-10-03T11:48:38.211Z,6.75
2022-10-03T11:51:10.112Z,5.07
2022-10-03T11:53:47.957Z,5.38
2022-10-03T11:56:34.065Z,4.03
2022-10-03T11:59:26.984Z,2.05
2022-10-03T12:02:10.253Z,5.40
2022-10-03T12:04:51.459Z,3.55
2022-10-03T12:07:50.081Z,3.65
2022-10-03T12:10:30.969Z,5.28
2022-10-03T12:13:00.379Z,3.30
2022-10-03T12:15:38.219Z,3.72
2022-10-03T12:18:14.456Z,3.78
2022-10-03T12:21:01.254Z,4.22
2022-10-03T12:23:56.137Z,4.38
2022-10-03T12:26:34.838Z,3.17
2022-10-03T12:29:04.829Z,3.72
2022-10-03T12:31:41.317Z,4.78
2022-10-03T12:34:25.227Z,4.07
2022-10-03T12:37:06.148Z,4.20
2022-10-03T12:39:40.649Z,3.72
2022-10-03T12:42:26.775Z,3.58
2022-10-03T12:45:00.654Z,4.25
2022-10-03T12:47:55.414Z,8.07
2022-10-03T12:50:37.959Z,4.47
2022-10-03T12:53:24.017Z,6.53
2022-10-03T12:56:06.418Z,4.78
2022-10-03T12:58:42.198Z,4.00
2022-10-03T13:01:20.740Z,3.45
2022-10-03T13:03:54.981Z,5.18
2022-10-03T13:07:04.177Z,3.83
2022-10-03T13:15:44.447Z,3.75
2022-10-03T13:18:33.213Z,3.88
2022-10-03T13:21:27.090Z,6.13
2022-10-03T13:24:02.025Z,3.55
2022-10-03T13:26:47.663Z,4.10
2022-10-03T13:29:30.315Z,3.75
2022-10-03T13:32:12.190Z,5.30
2022-10-03T13:35:23.389Z,3.50
2022-10-03T13:38:10.092Z,4.32
2022-10-03T13:40:43.582Z,5.97
2022-10-03T13:43:16.237Z,3.55
2022-10-03T13:45:47.625Z,4.63
2022-10-03T13:48:20.413Z,3.85
2022-10-03T13:50:56.361Z,3.85
2022-10-03T13:53:45.583Z,4.07
2022-10-03T13:58:55.858Z,3.83
2022-10-03T14:01:40.475Z,4.30
2022-10-03T14:04:39.396Z,5.07
2022-10-03T14:07:15.567Z,3.50
2022-10-03T14:10:08.176Z,6.00
2022-10-03T14:12:55.829Z,2.35
2022-10-03T14:15:34.558Z,2.95
2022-10-03T14:18:14.507Z,2.45
2022-10-03T14:21:32.734Z,3.03
2022-10-03T14:24:11.604Z,4.10
2022-10-03T14:26:49.369Z,4.03
2022-10-03T14:29:25.659Z,2.28
2022-10-03T14:32:02.617Z,5.28
2022-10-03T14:34:43.320Z,4.38
2022-10-03T14:37:25.164Z,2.60
2022-10-03T14:40:05.184Z,3.63
2022-10-03T14:42:53.702Z,2.70
2022-10-03T14:45:27.012Z,2.40
2022-10-03T14:48:00.710Z,2.40
2022-10-03T14:50:32.213Z,4.05
2022-10-03T14:53:04.725Z,3.03
2022-10-03T14:55:35.169Z,2.25
2022-10-03T14:58:11.127Z,3.92
2022-10-03T15:00:44.170Z,1.80
2022-10-03T15:03:33.646Z,1.98
2022-10-03T15:06:33.842Z,2.28
2022-10-03T15:09:05.512Z,4.00
2022-10-03T15:11:36.247Z,1.63
2022-10-03T15:14:10.036Z,2.97
2022-10-03T15:16:48.777Z,2.08
2022-10-03T15:19:20.098Z,1.98
2022-10-03T15:21:52.067Z,2.25
2022-10-03T15:24:25.515Z,2.55
2022-10-03T15:26:59.265Z,2.40
2022-10-03T15:29:30.445Z,3.20
2022-10-03T15:31:59.190Z,1.75
2022-10-03T15:34:32.333Z,2.70
2022-10-03T15:37:02.871Z,3.47
2022-10-03T15:39:35.624Z,1.98
2022-10-03T15:42:16.464Z,2.03
2022-10-03T15:44:53.680Z,2.00
2022-10-03T15:47:24.364Z,3.88
2022-10-03T15:49:57.119Z,2.63
2022-10-03T15:52:32.522Z,1.08
2022-10-03T15:55:12.637Z,1.55
2022-10-03T15:57:46.818Z,2.45
2022-10-03T16:00:24.772Z,1.13
2022-10-03T16:02:59.906Z,1.30
2022-10-03T16:05:28.882Z,2.03
2022-10-03T16:08:03.104Z,2.95
2022-10-03T16:10:37.401Z,2.28
2022-10-03T16:13:18.673Z,2.03
2022-10-03T16:16:16.828Z,2.25
2022-10-03T16:18:58.901Z,1.30
2022-10-03T16:21:46.692Z,1.73
2022-10-03T16:24:23.305Z,2.22
2022-10-03T16:26:56.482Z,2.50
2022-10-03T16:29:28.913Z,2.60
2022-10-03T16:32:03.872Z,2.83
2022-10-03T16:34:34.339Z,1.50
2022-10-03T16:37:03.690Z,4.28
2022-10-03T16:39:35.573Z,6.47
2022-10-03T16:42:12.760Z,5.72
2022-10-03T16:44:50.090Z,2.63
2022-10-03T16:47:32.625Z,4.65
2022-10-03T16:50:19.081Z,3.30
2022-10-03T16:52:49.995Z,6.28
2022-10-03T16:55:22.527Z,7.30
2022-10-03T16:57:54.143Z,4.55
2022-10-03T17:00:25.158Z,5.90
2022-10-03T17:02:56.805Z,4.50
2022-10-03T17:05:25.633Z,4.50
2022-10-03T17:08:06.664Z,1.77
2022-10-03T17:10:53.524Z,2.50
2022-10-03T17:13:25.174Z,4.88
2022-10-03T17:15:58.372Z,4.47
2022-10-03T17:18:32.068Z,2.58
2022-10-03T17:21:09.332Z,2.38
2022-10-03T17:23:42.246Z,2.88
2022-10-03T17:26:14.490Z,2.30
2022-10-03T17:28:47.159Z,0.50
2022-10-03T17:31:28.574Z,2.22
2022-10-03T17:34:04.370Z,0.60
2022-10-03T17:36:49.753Z,3.00
2022-10-03T17:39:32.696Z,0.65
2022-10-03T17:42:09.147Z,0.60
2022-10-03T17:44:46.753Z,4.00
2022-10-03T17:47:23.731Z,2.17
2022-10-03T17:50:02.749Z,1.10
2022-10-03T17:52:32.485Z,0.35
2022-10-03T17:57:36.990Z,2.88
2022-10-03T18:00:09.684Z,1.70
2022-10-03T18:02:47.606Z,6.40
2022-10-03T18:05:20.758Z,2.25
2022-10-03T18:07:52.799Z,2.35
2022-10-03T18:10:24.267Z,7.88
2022-10-03T18:12:55.810Z,5.80
2022-10-03T18:15:53.148Z,3.80
2022-10-03T18:19:07.235Z,3.08
2022-10-03T18:21:45.940Z,3.70
2022-10-03T18:24:49.186Z,5.65
2022-10-03T18:27:52.249Z,3.38
2022-10-03T18:30:24.887Z,3.42
2022-10-03T18:32:54.589Z,1.52
2022-10-03T18:38:11.631Z,4.63
2022-10-03T18:40:44.611Z,4.10
2022-10-03T18:43:32.516Z,1.67
2022-10-03T18:46:11.723Z,1.80
2022-10-03T18:49:09.262Z,2.13
2022-10-03T18:51:40.268Z,2.80
2022-10-03T18:54:25.163Z,3.75
2022-10-03T18:57:07.831Z,2.70
2022-10-03T18:59:43.350Z,2.33
2022-10-03T19:02:20.742Z,3.83
2022-10-03T19:04:55.544Z,3.13
2022-10-03T19:07:25.993Z,2.22
2022-10-03T19:10:27.125Z,3.25
2022-10-03T19:13:02.033Z,2.10
2022-10-03T19:15:42.695Z,3.33
2022-10-03T19:18:21.192Z,2.83
2022-10-03T19:20:52.488Z,3.13
2022-10-03T19:23:26.859Z,4.10
2022-10-03T19:26:01.274Z,3.00
2022-10-03T19:28:33.812Z,7.95
2022-10-03T19:31:06.569Z,6.80
2022-10-03T19:33:43.797Z,5.65
2022-10-03T19:36:17.010Z,7.93
2022-10-03T19:38:47.972Z,5.82
2022-10-03T19:41:28.041Z,4.82
2022-10-03T19:43:58.001Z,4.28
2022-10-03T19:46:51.408Z,5.25
2022-10-03T19:49:31.105Z,6.05
2022-10-03T19:52:25.614Z,5.13
2022-10-03T19:55:00.130Z,4.15
2022-10-03T19:57:40.133Z,4.00
2022-10-03T20:00:21.304Z,2.17
2022-10-03T20:02:56.001Z,2.05
2022-10-03T20:05:30.355Z,5.00
2022-10-03T20:08:02.768Z,2.35
2022-10-03T20:10:47.696Z,1.05
2022-10-03T20:13:17.537Z,1.30
2022-10-03T20:18:23.239Z,0.95
2022-10-03T20:20:54.552Z,0.93
2022-10-03T20:23:25.882Z,0.88
2022-10-03T20:25:59.590Z,1.25
2022-10-03T20:28:49.725Z,0.52
2022-10-03T20:31:22.895Z,0.63
2022-10-03T20:33:53.377Z,1.08
2022-10-03T20:36:25.196Z,2.05
2022-10-03T20:39:12.763Z,2.75
2022-10-03T20:41:55.947Z,0.95
2022-10-03T20:44:39.728Z,2.03
2022-10-03T20:47:13.719Z,0.77
2022-10-03T20:49:48.314Z,0.77
2022-10-03T20:52:20.500Z,0.30
2022-10-03T20:54:50.807Z,1.00
2022-10-03T20:57:21.836Z,1.52
2022-10-03T20:59:55.499Z,1.48
2022-10-03T21:02:29.585Z,0.55
2022-10-03T21:05:02.405Z,0.40
2022-10-03T21:07:36.918Z,0.20
2022-10-03T21:10:18.383Z,0.30
2022-10-03T21:12:50.008Z,0.43
2022-10-03T21:15:30.612Z,0.10
2022-10-03T21:17:59.876Z,0.20
2022-10-03T21:20:35.484Z,0.10
2022-10-03T21:23:08.192Z,0.10
2022-10-03T21:25:39.077Z,0.20
2022-10-03T21:28:23.914Z,0.20
2022-10-03T21:31:25.565Z,0.13
2022-10-03T21:34:02.551Z,0.47
2022-10-03T21:36:48.141Z,0.50
2022-10-03T21:39:19.351Z,0.17
2022-10-03T21:42:00.456Z,1.00
2022-10-03T21:44:38.811Z,1.92
2022-10-03T21:47:19.573Z,1.33
2022-10-03T21:49:56.637Z,0.35
2022-10-03T21:52:42.043Z,0.90
2022-10-03T21:55:45.463Z,0.28
2022-10-03T21:58:42.965Z,0.63
2022-10-03T22:01:17.453Z,0.15
2022-10-03T22:03:52.706Z,0.65
2022-10-03T22:06:26.140Z,0.65
2022-10-03T22:08:54.912Z,0.30
2022-10-03T22:11:40.312Z,2.25
2022-10-03T22:14:22.618Z,1.73
2022-10-03T22:16:57.623Z,0.40
2022-10-03T22:19:37.046Z,1.33
2022-10-03T22:22:40.815Z,0.55
2022-10-03T22:25:22.055Z,0.40
2022-10-03T22:27:57.635Z,1.40
2022-10-03T22:30:25.821Z,0.70
2022-10-03T22:33:09.356Z,0.57
2022-10-03T22:35:49.435Z,0.63
2022-10-03T22:38:19.428Z,0.45
2022-10-03T22:40:51.483Z,0.75
2022-10-03T22:43:20.968Z,1.27
2022-10-03T22:45:52.362Z,0.35
2022-10-03T22:48:24.605Z,0.43
2022-10-03T22:50:55.085Z,1.00
2022-10-03T22:53:26.854Z,0.30
2022-10-03T22:55:59.603Z,0.70
2022-10-03T22:58:30.654Z,0.60
2022-10-03T23:01:01.268Z,2.45
2022-10-03T23:03:33.646Z,1.20
2022-10-03T23:06:41.419Z,4.13
2022-10-03T23:09:14.989Z,2.88
2022-10-03T23:11:47.944Z,3.28
2022-10-03T23:14:20.873Z,2.35
2022-10-03T23:16:55.359Z,3.22
2022-10-03T23:19:33.604Z,3.22
2022-10-03T23:22:03.377Z,2.35
2022-10-03T23:24:35.951Z,4.15
2022-10-03T23:27:31.237Z,3.10
2022-10-03T23:30:45.996Z,2.45
2022-10-03T23:33:18.306Z,3.55
2022-10-03T23:35:48.484Z,2.03
2022-10-03T23:38:58.872Z,1.98
2022-10-03T23:41:44.170Z,2.97
2022-10-03T23:44:35.256Z,2.22
2022-10-03T23:47:07.301Z,3.33
2022-10-03T23:49:37.140Z,3.17
2022-10-03T23:52:06.817Z,2.67
2022-10-03T23:54:36.363Z,2.38
2022-10-03T23:57:08.581Z,2.72
2022-10-03T23:59:39.176Z,1.65
